sensor_id;sensor_type;location;lat;lon;timestamp;pressure;altitude;pressure_sealevel;temperature;humidity
21240;BME280;10778;48.962;9.018;2023-10-31T00:01:09;97512.78;;;10.81;100.00
21240;BME280;10778;48.962;9.018;2023-10-31T00:03:35;97511.78;;;10.82;100.00
21240;BME280;10778;48.962;9.018;2023-10-31T00:06:01;97517.97;;;10.90;100.00
21240;BME280;10778;48.962;9.018;2023-10-31T00:08:27;97524.78;;;10.84;100.00
21240;BME280;10778;48.962;9.018;2023-10-31T00:10:53;97525.78;;;10.83;100.00
21240;BME280;10778;48.962;9.018;2023-10-31T00:13:19;97528.47;;;10.75;100.00
21240;BME280;10778;48.962;9.018;2023-10-31T00:15:45;97535.72;;;10.73;100.00
21240;BME280;10778;48.962;9.018;2023-10-31T00:18:11;97546.47;;;10.63;100.00
21240;BME280;10778;48.962;9.018;2023-10-31T00:20:37;97542.59;;;10.59;100.00
21240;BME280;10778;48.962;9.018;2023-10-31T00:23:03;97546.56;;;10.55;100.00
21240;BME280;10778;48.962;9.018;2023-10-31T00:25:29;97556.13;;;10.47;100.00
21240;BME280;10778;48.962;9.018;2023-10-31T00:27:55;97554.16;;;10.49;100.00
21240;BME280;10778;48.962;9.018;2023-10-31T00:30:21;97557.13;;;10.46;100.00
21240;BME280;10778;48.962;9.018;2023-10-31T00:32:47;97556.84;;;10.33;100.00
21240;BME280;10778;48.962;9.018;2023-10-31T00:35:13;97554.47;;;10.23;100.00
21240;BME280;10778;48.962;9.018;2023-10-31T00:37:39;97572.06;;;10.22;100.00
21240;BME280;10778;48.962;9.018;2023-10-31T00:40:08;97564.03;;;10.16;100.00
21240;BME280;10778;48.962;9.018;2023-10-31T00:42:39;97565.06;;;10.06;100.00
21240;BME280;10778;48.962;9.018;2023-10-31T00:45:08;97567.56;;;10.00;100.00
21240;BME280;10778;48.962;9.018;2023-10-31T00:47:34;97573.16;;;9.96;100.00
21240;BME280;10778;48.962;9.018;2023-10-31T00:50:00;97583.03;;;9.94;100.00
21240;BME280;10778;48.962;9.018;2023-10-31T00:52:26;97592.72;;;9.94;100.00
21240;BME280;10778;48.962;9.018;2023-10-31T00:54:52;97600.44;;;9.95;100.00
21240;BME280;10778;48.962;9.018;2023-10-31T00:57:18;97600.16;;;9.82;100.00
21240;BME280;10778;48.962;9.018;2023-10-31T00:59:44;97602.47;;;9.85;100.00
21240;BME280;10778;48.962;9.018;2023-10-31T01:02:10;97604.25;;;9.85;100.00
21240;BME280;10778;48.962;9.018;2023-10-31T01:04:36;97606.09;;;9.76;100.00
21240;BME280;10778;48.962;9.018;2023-10-31T01:07:04;97598.72;;;9.71;100.00
21240;BME280;10778;48.962;9.018;2023-10-31T01:09:30;97604.47;;;9.75;100.00
21240;BME280;10778;48.962;9.018;2023-10-31T01:11:56;97605.66;;;9.64;100.00
21240;BME280;10778;48.962;9.018;2023-10-31T01:14:22;97607.28;;;9.57;100.00
21240;BME280;10778;48.962;9.018;2023-10-31T01:16:48;97604.03;;;9.54;100.00
21240;BME280;10778;48.962;9.018;2023-10-31T01:19:14;97603.72;;;9.49;100.00
21240;BME280;10778;48.962;9.018;2023-10-31T01:21:40;97592.56;;;9.47;100.00
21240;BME280;10778;48.962;9.018;2023-10-31T01:24:06;97581.88;;;9.49;100.00
21240;BME280;10778;48.962;9.018;2023-10-31T01:26:32;97585.34;;;9.41;100.00
21240;BME280;10778;48.962;9.018;2023-10-31T01:28:59;97582.72;;;9.41;100.00
21240;BME280;10778;48.962;9.018;2023-10-31T01:31:25;97584.53;;;9.32;100.00
21240;BME280;10778;48.962;9.018;2023-10-31T01:33:50;97591.47;;;9.25;100.00
21240;BME280;10778;48.962;9.018;2023-10-31T01:36:16;97593.28;;;9.24;100.00
21240;BME280;10778;48.962;9.018;2023-10-31T01:38:43;97595.72;;;9.26;100.00
21240;BME280;10778;48.962;9.018;2023-10-31T01:41:12;97601.31;;;9.15;100.00
21240;BME280;10778;48.962;9.018;2023-10-31T01:43:38;97606.72;;;9.21;100.00
21240;BME280;10778;48.962;9.018;2023-10-31T01:46:04;97622.78;;;9.18;100.00
21240;BME280;10778;48.962;9.018;2023-10-31T01:48:32;97622.47;;;9.30;100.00
21240;BME280;10778;48.962;9.018;2023-10-31T01:50:59;97627.19;;;9.43;100.00
21240;BME280;10778;48.962;9.018;2023-10-31T01:53:27;97632.28;;;9.44;100.00
21240;BME280;10778;48.962;9.018;2023-10-31T01:55:55;97636.22;;;9.48;100.00
21240;BME280;10778;48.962;9.018;2023-10-31T01:58:25;97643.59;;;9.45;100.00
21240;BME280;10778;48.962;9.018;2023-10-31T02:00:55;97639.00;;;9.38;100.00
21240;BME280;10778;48.962;9.018;2023-10-31T02:03:21;97651.66;;;9.35;100.00
21240;BME280;10778;48.962;9.018;2023-10-31T02:05:47;97668.41;;;9.25;100.00
21240;BME280;10778;48.962;9.018;2023-10-31T02:08:13;97662.16;;;9.18;100.00
21240;BME280;10778;48.962;9.018;2023-10-31T02:10:39;97651.66;;;9.18;100.00
21240;BME280;10778;48.962;9.018;2023-10-31T02:13:13;97659.38;;;9.20;100.00
21240;BME280;10778;48.962;9.018;2023-10-31T02:15:39;97656.41;;;9.15;100.00
21240;BME280;10778;48.962;9.018;2023-10-31T02:18:06;97656.41;;;9.15;100.00
21240;BME280;10778;48.962;9.018;2023-10-31T02:20:32;97661.53;;;9.08;100.00
21240;BME280;10778;48.962;9.018;2023-10-31T02:22:59;97657.06;;;9.08;100.00
21240;BME280;10778;48.962;9.018;2023-10-31T02:25:25;97661.66;;;9.15;100.00
21240;BME280;10778;48.962;9.018;2023-10-31T02:27:51;97660.53;;;9.09;100.00
21240;BME280;10778;48.962;9.018;2023-10-31T02:30:17;97672.31;;;9.05;100.00
21240;BME280;10778;48.962;9.018;2023-10-31T02:32:43;97670.69;;;9.04;100.00
21240;BME280;10778;48.962;9.018;2023-10-31T02:35:10;97666.75;;;9.08;100.00
21240;BME280;10778;48.962;9.018;2023-10-31T02:37:36;97662.66;;;9.05;100.00
21240;BME280;10778;48.962;9.018;2023-10-31T02:40:03;97669.06;;;8.94;100.00
21240;BME280;10778;48.962;9.018;2023-10-31T02:42:29;97665.25;;;8.97;100.00
21240;BME280;10778;48.962;9.018;2023-10-31T02:44:55;97671.00;;;9.01;100.00
21240;BME280;10778;48.962;9.018;2023-10-31T02:47:21;97672.16;;;8.98;100.00
21240;BME280;10778;48.962;9.018;2023-10-31T02:49:47;97683.94;;;8.94;100.00
21240;BME280;10778;48.962;9.018;2023-10-31T02:52:13;97687.22;;;8.96;100.00
21240;BME280;10778;48.962;9.018;2023-10-31T02:54:39;97684.59;;;8.96;100.00
21240;BME280;10778;48.962;9.018;2023-10-31T02:57:05;97682.50;;;8.91;100.00
21240;BME280;10778;48.962;9.018;2023-10-31T02:59:31;97681.84;;;8.98;100.00
21240;BME280;10778;48.962;9.018;2023-10-31T03:01:57;97684.59;;;8.96;100.00
21240;BME280;10778;48.962;9.018;2023-10-31T03:04:23;97674.78;;;8.98;100.00
21240;BME280;10778;48.962;9.018;2023-10-31T03:06:49;97683.47;;;8.99;100.00
21240;BME280;10778;48.962;9.018;2023-10-31T03:09:15;97693.13;;;8.98;100.00
21240;BME280;10778;48.962;9.018;2023-10-31T03:11:41;97690.88;;;9.03;100.00
21240;BME280;10778;48.962;9.018;2023-10-31T03:14:07;97703.50;;;9.08;100.00
21240;BME280;10778;48.962;9.018;2023-10-31T03:16:33;97709.22;;;9.03;100.00
21240;BME280;10778;48.962;9.018;2023-10-31T03:18:59;97709.22;;;9.03;100.00
21240;BME280;10778;48.962;9.018;2023-10-31T03:21:25;97719.06;;;9.01;100.00
21240;BME280;10778;48.962;9.018;2023-10-31T03:23:51;97711.84;;;9.11;100.00
21240;BME280;10778;48.962;9.018;2023-10-31T03:26:19;97706.94;;;9.08;100.00
21240;BME280;10778;48.962;9.018;2023-10-31T03:28:45;97703.50;;;9.08;100.00
21240;BME280;10778;48.962;9.018;2023-10-31T03:31:12;97705.78;;;9.19;100.00
21240;BME280;10778;48.962;9.018;2023-10-31T03:33:38;97712.03;;;9.27;100.00
21240;BME280;10778;48.962;9.018;2023-10-31T03:36:05;97706.44;;;9.30;100.00
21240;BME280;10778;48.962;9.018;2023-10-31T03:38:31;97712.03;;;9.43;100.00
21240;BME280;10778;48.962;9.018;2023-10-31T03:40:57;97708.88;;;9.31;100.00
21240;BME280;10778;48.962;9.018;2023-10-31T03:43:23;97708.72;;;9.41;100.00
21240;BME280;10778;48.962;9.018;2023-10-31T03:45:49;97724.47;;;9.49;100.00
21240;BME280;10778;48.962;9.018;2023-10-31T03:48:16;97723.66;;;9.41;100.00
21240;BME280;10778;48.962;9.018;2023-10-31T03:50:42;97728.25;;;9.38;100.00
21240;BME280;10778;48.962;9.018;2023-10-31T03:53:09;97720.19;;;9.40;100.00
21240;BME280;10778;48.962;9.018;2023-10-31T03:55:34;97721.84;;;9.41;100.00
21240;BME280;10778;48.962;9.018;2023-10-31T03:58:01;97724.34;;;9.34;100.00
21240;BME280;10778;48.962;9.018;2023-10-31T04:00:27;97720.72;;;9.35;100.00
21240;BME280;10778;48.962;9.018;2023-10-31T04:02:53;97727.44;;;9.38;100.00
21240;BME280;10778;48.962;9.018;2023-10-31T04:05:19;97729.72;;;9.41;100.00
21240;BME280;10778;48.962;9.018;2023-10-31T04:07:46;97720.88;;;9.42;100.00
21240;BME280;10778;48.962;9.018;2023-10-31T04:10:12;97724.00;;;9.37;100.00
21240;BME280;10778;48.962;9.018;2023-10-31T04:12:38;97725.81;;;9.45;100.00
21240;BME280;10778;48.962;9.018;2023-10-31T04:15:05;97725.31;;;9.42;100.00
21240;BME280;10778;48.962;9.018;2023-10-31T04:17:31;97728.44;;;9.45;100.00
21240;BME280;10778;48.962;9.018;2023-10-31T04:19:57;97733.84;;;9.44;100.00
21240;BME280;10778;48.962;9.018;2023-10-31T04:22:23;97739.91;;;9.36;100.00
21240;BME280;10778;48.962;9.018;2023-10-31T04:24:49;97731.38;;;9.42;100.00
21240;BME280;10778;48.962;9.018;2023-10-31T04:27:15;97726.28;;;9.41;100.00
21240;BME280;10778;48.962;9.018;2023-10-31T04:29:41;97728.75;;;9.42;100.00
21240;BME280;10778;48.962;9.018;2023-10-31T04:32:07;97730.72;;;9.48;100.00
21240;BME280;10778;48.962;9.018;2023-10-31T04:34:33;97733.50;;;9.38;100.00
21240;BME280;10778;48.962;9.018;2023-10-31T04:36:59;97749.75;;;9.34;100.00
21240;BME280;10778;48.962;9.018;2023-10-31T04:39:25;97757.44;;;9.27;100.00
21240;BME280;10778;48.962;9.018;2023-10-31T04:41:51;97756.66;;;9.27;100.00
21240;BME280;10778;48.962;9.018;2023-10-31T04:44:17;97754.03;;;9.27;100.00
21240;BME280;10778;48.962;9.018;2023-10-31T04:46:43;97759.91;;;9.29;100.00
21240;BME280;10778;48.962;9.018;2023-10-31T04:49:09;97753.34;;;9.33;100.00
21240;BME280;10778;48.962;9.018;2023-10-31T04:51:35;97758.75;;;9.23;100.00
21240;BME280;10778;48.962;9.018;2023-10-31T04:54:02;97755.47;;;9.21;100.00
21240;BME280;10778;48.962;9.018;2023-10-31T04:56:28;97753.34;;;9.16;100.00
21240;BME280;10778;48.962;9.018;2023-10-31T04:58:54;97759.28;;;9.27;100.00
21240;BME280;10778;48.962;9.018;2023-10-31T05:01:20;97760.09;;;9.19;100.00
21240;BME280;10778;48.962;9.018;2023-10-31T05:03:46;97767.94;;;9.19;100.00
21240;BME280;10778;48.962;9.018;2023-10-31T05:06:12;97764.66;;;9.25;100.00
21240;BME280;10778;48.962;9.018;2023-10-31T05:08:38;97764.66;;;9.25;100.00
21240;BME280;10778;48.962;9.018;2023-10-31T05:11:04;97762.19;;;9.23;100.00
21240;BME280;10778;48.962;9.018;2023-10-31T05:13:30;97758.25;;;9.19;100.00
21240;BME280;10778;48.962;9.018;2023-10-31T05:15:59;97762.53;;;9.20;100.00
21240;BME280;10778;48.962;9.018;2023-10-31T05:18:25;97763.84;;;9.16;100.00
21240;BME280;10778;48.962;9.018;2023-10-31T05:20:51;97765.97;;;9.13;100.00
21240;BME280;10778;48.962;9.018;2023-10-31T05:23:17;97769.41;;;9.13;100.00
21240;BME280;10778;48.962;9.018;2023-10-31T05:25:43;97766.47;;;9.16;100.00
21240;BME280;10778;48.962;9.018;2023-10-31T05:28:09;97764.00;;;9.15;100.00
21240;BME280;10778;48.962;9.018;2023-10-31T05:30:35;97764.16;;;9.13;100.00
21240;BME280;10778;48.962;9.018;2023-10-31T05:33:01;97769.91;;;9.17;100.00
21240;BME280;10778;48.962;9.018;2023-10-31T05:35:27;97779.25;;;9.11;100.00
21240;BME280;10778;48.962;9.018;2023-10-31T05:37:53;97783.50;;;9.12;100.00
21240;BME280;10778;48.962;9.018;2023-10-31T05:40:19;97789.25;;;8.99;100.00
21240;BME280;10778;48.962;9.018;2023-10-31T05:42:48;97788.78;;;9.37;100.00
21240;BME280;10778;48.962;9.018;2023-10-31T05:45:14;97792.44;;;9.61;100.00
21240;BME280;10778;48.962;9.018;2023-10-31T05:47:39;97800.47;;;9.67;100.00
21240;BME280;10778;48.962;9.018;2023-10-31T05:50:06;97798.16;;;9.81;100.00
21240;BME280;10778;48.962;9.018;2023-10-31T05:52:32;97800.94;;;9.54;100.00
21240;BME280;10778;48.962;9.018;2023-10-31T05:54:58;97803.75;;;9.53;100.00
21240;BME280;10778;48.962;9.018;2023-10-31T05:57:24;97804.06;;;9.66;100.00
21240;BME280;10778;48.962;9.018;2023-10-31T05:59:50;97814.25;;;9.53;100.00
21240;BME280;10778;48.962;9.018;2023-10-31T06:02:16;97809.47;;;9.73;100.00
21240;BME280;10778;48.962;9.018;2023-10-31T06:04:42;97805.56;;;9.77;100.00
21240;BME280;10778;48.962;9.018;2023-10-31T06:07:10;97815.72;;;9.80;100.00
21240;BME280;10778;48.962;9.018;2023-10-31T06:09:36;97814.91;;;9.72;100.00
21240;BME280;10778;48.962;9.018;2023-10-31T06:12:02;97819.97;;;9.57;100.00
21240;BME280;10778;48.962;9.018;2023-10-31T06:14:28;97812.59;;;9.85;100.00
21240;BME280;10778;48.962;9.018;2023-10-31T06:16:54;97831.63;;;10.12;99.09
21240;BME280;10778;48.962;9.018;2023-10-31T06:19:22;97826.88;;;9.91;99.01
21240;BME280;10778;48.962;9.018;2023-10-31T06:21:48;97830.31;;;9.66;100.00
21240;BME280;10778;48.962;9.018;2023-10-31T06:24:14;97832.28;;;9.81;99.62
21240;BME280;10778;48.962;9.018;2023-10-31T06:26:40;97838.72;;;9.78;100.00
21240;BME280;10778;48.962;9.018;2023-10-31T06:29:06;97841.97;;;10.14;100.00
21240;BME280;10778;48.962;9.018;2023-10-31T06:31:32;97843.78;;;10.05;100.00
21240;BME280;10778;48.962;9.018;2023-10-31T06:33:58;97845.41;;;10.14;100.00
21240;BME280;10778;48.962;9.018;2023-10-31T06:36:24;97852.16;;;10.00;98.87
21240;BME280;10778;48.962;9.018;2023-10-31T06:38:50;97859.03;;;10.09;98.17
21240;BME280;10778;48.962;9.018;2023-10-31T06:41:16;97861.66;;;10.34;100.00
21240;BME280;10778;48.962;9.018;2023-10-31T06:43:42;97856.88;;;10.46;97.79
21240;BME280;10778;48.962;9.018;2023-10-31T06:46:08;97859.19;;;10.33;94.54
21240;BME280;10778;48.962;9.018;2023-10-31T06:48:33;97857.06;;;10.28;97.08
21240;BME280;10778;48.962;9.018;2023-10-31T06:50:59;97850.28;;;10.34;92.08
21240;BME280;10778;48.962;9.018;2023-10-31T06:53:26;97855.94;;;10.06;93.08
21240;BME280;10778;48.962;9.018;2023-10-31T06:55:51;97868.72;;;9.84;96.70
21240;BME280;10778;48.962;9.018;2023-10-31T06:58:17;97876.94;;;9.98;95.24
21240;BME280;10778;48.962;9.018;2023-10-31T07:00:43;97879.41;;;9.91;95.33
21240;BME280;10778;48.962;9.018;2023-10-31T07:03:09;97883.53;;;10.02;99.33
21240;BME280;10778;48.962;9.018;2023-10-31T07:05:41;97886.16;;;9.93;95.34
21240;BME280;10778;48.962;9.018;2023-10-31T07:08:07;97894.84;;;10.02;96.14
21240;BME280;10778;48.962;9.018;2023-10-31T07:10:33;97899.13;;;10.20;95.90
21240;BME280;10778;48.962;9.018;2023-10-31T07:12:59;97902.22;;;10.57;98.15
21240;BME280;10778;48.962;9.018;2023-10-31T07:15:25;97904.38;;;10.53;95.89
21240;BME280;10778;48.962;9.018;2023-10-31T07:17:51;97915.84;;;10.60;95.74
21240;BME280;10778;48.962;9.018;2023-10-31T07:20:17;97921.28;;;10.34;96.17
21240;BME280;10778;48.962;9.018;2023-10-31T07:22:44;97919.81;;;10.56;95.88
21240;BME280;10778;48.962;9.018;2023-10-31T07:25:10;97919.47;;;10.59;94.94
21240;BME280;10778;48.962;9.018;2023-10-31T07:27:36;97918.66;;;10.59;95.46
21240;BME280;10778;48.962;9.018;2023-10-31T07:30:03;97922.13;;;10.43;96.58
21240;BME280;10778;48.962;9.018;2023-10-31T07:32:30;97920.00;;;10.38;95.73
21240;BME280;10778;48.962;9.018;2023-10-31T07:34:56;97923.94;;;10.25;94.06
21240;BME280;10778;48.962;9.018;2023-10-31T07:37:23;97930.16;;;10.16;96.21
21240;BME280;10778;48.962;9.018;2023-10-31T07:39:49;97932.97;;;10.23;97.45
21240;BME280;10778;48.962;9.018;2023-10-31T07:42:16;97933.13;;;10.30;93.87
21240;BME280;10778;48.962;9.018;2023-10-31T07:44:42;97930.34;;;10.48;96.89
21240;BME280;10778;48.962;9.018;2023-10-31T07:47:08;97931.31;;;10.30;95.59
21240;BME280;10778;48.962;9.018;2023-10-31T07:49:34;97930.50;;;10.55;94.79
21240;BME280;10778;48.962;9.018;2023-10-31T07:52:00;97936.25;;;10.58;95.07
21240;BME280;10778;48.962;9.018;2023-10-31T07:54:26;97929.16;;;10.67;93.48
21240;BME280;10778;48.962;9.018;2023-10-31T07:56:52;97932.97;;;11.13;93.78
21240;BME280;10778;48.962;9.018;2023-10-31T07:59:18;97936.25;;;11.23;92.21
21240;BME280;10778;48.962;9.018;2023-10-31T08:01:44;97937.47;;;11.35;90.47
21240;BME280;10778;48.962;9.018;2023-10-31T08:04:10;97943.72;;;11.74;89.58
21240;BME280;10778;48.962;9.018;2023-10-31T08:06:36;97940.00;;;11.60;88.34
21240;BME280;10778;48.962;9.018;2023-10-31T08:09:02;97940.09;;;11.44;87.64
21240;BME280;10778;48.962;9.018;2023-10-31T08:11:29;97951.72;;;11.18;88.86
21240;BME280;10778;48.962;9.018;2023-10-31T08:13:55;97955.59;;;10.90;88.56
21240;BME280;10778;48.962;9.018;2023-10-31T08:16:21;97955.94;;;10.87;90.63
21240;BME280;10778;48.962;9.018;2023-10-31T08:18:48;97963.34;;;10.75;91.04
21240;BME280;10778;48.962;9.018;2023-10-31T08:21:14;97962.69;;;10.81;90.90
21240;BME280;10778;48.962;9.018;2023-10-31T08:23:40;97963.31;;;10.92;90.71
21240;BME280;10778;48.962;9.018;2023-10-31T08:26:06;97969.72;;;10.98;91.28
21240;BME280;10778;48.962;9.018;2023-10-31T08:28:32;97968.38;;;11.02;91.72
21240;BME280;10778;48.962;9.018;2023-10-31T08:30:58;97979.63;;;11.35;91.09
21240;BME280;10778;48.962;9.018;2023-10-31T08:33:24;97983.59;;;11.31;89.89
21240;BME280;10778;48.962;9.018;2023-10-31T08:35:50;97976.31;;;11.42;88.43
21240;BME280;10778;48.962;9.018;2023-10-31T08:38:17;97978.56;;;11.53;87.35
21240;BME280;10778;48.962;9.018;2023-10-31T08:40:43;97980.56;;;11.83;86.33
21240;BME280;10778;48.962;9.018;2023-10-31T08:43:09;97987.41;;;11.92;86.49
21240;BME280;10778;48.962;9.018;2023-10-31T08:45:35;97990.34;;;11.74;85.64
21240;BME280;10778;48.962;9.018;2023-10-31T08:48:01;97997.03;;;11.85;85.83
21240;BME280;10778;48.962;9.018;2023-10-31T08:50:27;97993.28;;;11.71;86.06
21240;BME280;10778;48.962;9.018;2023-10-31T08:52:53;97994.34;;;11.61;86.43
21240;BME280;10778;48.962;9.018;2023-10-31T08:55:19;97994.00;;;11.64;85.94
21240;BME280;10778;48.962;9.018;2023-10-31T08:57:46;97991.84;;;11.68;85.91
21240;BME280;10778;48.962;9.018;2023-10-31T09:00:12;97995.91;;;11.71;86.91
21240;BME280;10778;48.962;9.018;2023-10-31T09:02:39;97998.72;;;12.01;85.26
21240;BME280;10778;48.962;9.018;2023-10-31T09:05:05;97995.13;;;11.62;86.46
21240;BME280;10778;48.962;9.018;2023-10-31T09:07:31;97997.09;;;11.28;87.85
21240;BME280;10778;48.962;9.018;2023-10-31T09:09:58;98003.69;;;11.24;88.92
21240;BME280;10778;48.962;9.018;2023-10-31T09:12:24;98004.69;;;11.15;89.67
21240;BME280;10778;48.962;9.018;2023-10-31T09:14:50;97998.63;;;11.06;89.68
21240;BME280;10778;48.962;9.018;2023-10-31T09:17:16;98003.91;;;11.14;88.49
21240;BME280;10778;48.962;9.018;2023-10-31T09:19:42;98003.06;;;11.22;89.40
21240;BME280;10778;48.962;9.018;2023-10-31T09:22:08;98005.00;;;11.28;90.20
21240;BME280;10778;48.962;9.018;2023-10-31T09:24:34;98000.28;;;11.55;89.19
21240;BME280;10778;48.962;9.018;2023-10-31T09:27:00;97999.38;;;11.71;87.89
21240;BME280;10778;48.962;9.018;2023-10-31T09:29:26;98005.09;;;11.83;88.39
21240;BME280;10778;48.962;9.018;2023-10-31T09:31:52;98007.63;;;12.00;84.90
21240;BME280;10778;48.962;9.018;2023-10-31T09:34:18;98004.16;;;12.07;84.06
21240;BME280;10778;48.962;9.018;2023-10-31T09:36:44;98010.25;;;12.00;84.87
21240;BME280;10778;48.962;9.018;2023-10-31T09:39:09;98005.19;;;12.21;82.84
21240;BME280;10778;48.962;9.018;2023-10-31T09:41:36;97998.38;;;12.35;82.54
21240;BME280;10778;48.962;9.018;2023-10-31T09:44:02;97984.84;;;13.37;78.72
21240;BME280;10778;48.962;9.018;2023-10-31T09:46:28;97996.66;;;13.56;77.62
21240;BME280;10778;48.962;9.018;2023-10-31T09:48:55;97988.59;;;13.13;79.85
21240;BME280;10778;48.962;9.018;2023-10-31T09:51:21;97989.09;;;13.23;77.67
21240;BME280;10778;48.962;9.018;2023-10-31T09:53:48;97999.47;;;12.79;79.82
21240;BME280;10778;48.962;9.018;2023-10-31T09:56:14;97997.50;;;12.58;81.31
21240;BME280;10778;48.962;9.018;2023-10-31T09:58:40;98001.25;;;12.64;82.67
21240;BME280;10778;48.962;9.018;2023-10-31T10:01:07;97998.13;;;12.45;82.49
21240;BME280;10778;48.962;9.018;2023-10-31T10:03:33;98000.13;;;12.20;83.20
21240;BME280;10778;48.962;9.018;2023-10-31T10:06:02;98003.34;;;11.99;82.42
21240;BME280;10778;48.962;9.018;2023-10-31T10:08:29;97995.53;;;12.14;86.63
21240;BME280;10778;48.962;9.018;2023-10-31T10:10:55;98000.06;;;12.28;84.37
21240;BME280;10778;48.962;9.018;2023-10-31T10:13:21;97992.59;;;12.08;84.54
21240;BME280;10778;48.962;9.018;2023-10-31T10:15:51;97997.84;;;12.17;86.35
21240;BME280;10778;48.962;9.018;2023-10-31T10:18:41;97988.97;;;12.33;84.40
21240;BME280;10778;48.962;9.018;2023-10-31T10:21:08;97997.34;;;12.60;83.62
21240;BME280;10778;48.962;9.018;2023-10-31T10:23:34;97992.38;;;12.42;84.74
21240;BME280;10778;48.962;9.018;2023-10-31T10:26:01;97987.41;;;13.45;80.88
21240;BME280;10778;48.962;9.018;2023-10-31T10:28:27;97989.72;;;12.65;80.84
21240;BME280;10778;48.962;9.018;2023-10-31T10:30:56;97989.38;;;13.13;80.07
21240;BME280;10778;48.962;9.018;2023-10-31T10:33:22;97987.00;;;12.88;81.10
21240;BME280;10778;48.962;9.018;2023-10-31T10:35:48;97988.06;;;12.64;81.10
21240;BME280;10778;48.962;9.018;2023-10-31T10:38:16;97989.47;;;12.90;80.01
21240;BME280;10778;48.962;9.018;2023-10-31T10:40:44;98001.59;;;13.14;78.14
21240;BME280;10778;48.962;9.018;2023-10-31T10:43:31;97995.84;;;13.71;76.96
21240;BME280;10778;48.962;9.018;2023-10-31T10:46:02;97995.69;;;14.16;75.96
21240;BME280;10778;48.962;9.018;2023-10-31T10:48:30;97994.44;;;13.75;76.04
21240;BME280;10778;48.962;9.018;2023-10-31T10:51:06;97998.16;;;14.17;76.12
21240;BME280;10778;48.962;9.018;2023-10-31T10:53:49;97996.53;;;13.79;76.20
21240;BME280;10778;48.962;9.018;2023-10-31T10:56:29;98005.97;;;13.52;77.09
21240;BME280;10778;48.962;9.018;2023-10-31T10:59:03;98005.72;;;13.47;79.00
21240;BME280;10778;48.962;9.018;2023-10-31T11:01:32;97998.47;;;13.71;78.23
21240;BME280;10778;48.962;9.018;2023-10-31T11:04:01;98002.25;;;13.61;77.62
21240;BME280;10778;48.962;9.018;2023-10-31T11:06:29;98002.50;;;13.51;78.93
21240;BME280;10778;48.962;9.018;2023-10-31T11:08:55;98000.06;;;13.05;79.91
21240;BME280;10778;48.962;9.018;2023-10-31T11:11:22;98011.78;;;13.02;80.09
21240;BME280;10778;48.962;9.018;2023-10-31T11:13:50;98007.13;;;12.89;82.07
21240;BME280;10778;48.962;9.018;2023-10-31T11:16:28;98011.72;;;13.26;82.12
21240;BME280;10778;48.962;9.018;2023-10-31T11:18:56;98002.03;;;13.63;79.78
21240;BME280;10778;48.962;9.018;2023-10-31T11:21:23;97998.94;;;13.74;78.16
21240;BME280;10778;48.962;9.018;2023-10-31T11:23:59;98005.78;;;13.38;78.96
21240;BME280;10778;48.962;9.018;2023-10-31T11:26:26;98019.91;;;13.31;78.27
21240;BME280;10778;48.962;9.018;2023-10-31T11:29:05;98027.44;;;13.34;80.77
21240;BME280;10778;48.962;9.018;2023-10-31T11:31:32;98027.47;;;13.19;80.95
21240;BME280;10778;48.962;9.018;2023-10-31T11:34:01;98035.19;;;12.67;82.07
21240;BME280;10778;48.962;9.018;2023-10-31T11:36:31;98033.84;;;12.48;84.45
21240;BME280;10778;48.962;9.018;2023-10-31T11:39:11;98045.78;;;12.44;84.39
21240;BME280;10778;48.962;9.018;2023-10-31T11:41:39;98038.31;;;12.24;85.15
21240;BME280;10778;48.962;9.018;2023-10-31T11:44:05;98048.25;;;12.14;85.75
21240;BME280;10778;48.962;9.018;2023-10-31T11:46:31;98038.44;;;12.07;85.70
21240;BME280;10778;48.962;9.018;2023-10-31T11:48:57;98046.50;;;12.06;87.21
21240;BME280;10778;48.962;9.018;2023-10-31T11:51:23;98054.53;;;12.13;88.51
21240;BME280;10778;48.962;9.018;2023-10-31T11:53:50;98057.38;;;12.34;88.06
21240;BME280;10778;48.962;9.018;2023-10-31T11:56:20;98044.78;;;12.83;85.50
21240;BME280;10778;48.962;9.018;2023-10-31T11:59:02;98042.66;;;13.02;83.34
21240;BME280;10778;48.962;9.018;2023-10-31T12:01:28;98042.00;;;13.00;84.49
21240;BME280;10778;48.962;9.018;2023-10-31T12:03:54;98036.91;;;12.98;83.11
21240;BME280;10778;48.962;9.018;2023-10-31T12:06:20;98043.63;;;12.86;84.92
21240;BME280;10778;48.962;9.018;2023-10-31T12:08:48;98038.44;;;12.92;85.18
21240;BME280;10778;48.962;9.018;2023-10-31T12:11:15;98034.97;;;12.92;87.23
21240;BME280;10778;48.962;9.018;2023-10-31T12:13:54;98040.59;;;12.74;86.85
21240;BME280;10778;48.962;9.018;2023-10-31T12:16:27;98045.13;;;12.65;87.08
21240;BME280;10778;48.962;9.018;2023-10-31T12:19:04;98049.81;;;12.55;86.99
21240;BME280;10778;48.962;9.018;2023-10-31T12:21:43;98062.22;;;12.46;88.51
21240;BME280;10778;48.962;9.018;2023-10-31T12:24:14;98054.50;;;12.21;90.00
21240;BME280;10778;48.962;9.018;2023-10-31T12:26:40;98066.47;;;12.00;92.53
21240;BME280;10778;48.962;9.018;2023-10-31T12:31:43;98066.53;;;11.84;93.12
21240;BME280;10778;48.962;9.018;2023-10-31T12:34:11;98080.34;;;11.86;94.80
21240;BME280;10778;48.962;9.018;2023-10-31T12:36:37;98074.47;;;11.75;97.46
21240;BME280;10778;48.962;9.018;2023-10-31T12:39:05;98077.44;;;11.72;98.39
21240;BME280;10778;48.962;9.018;2023-10-31T12:41:32;98091.63;;;11.71;99.47
21240;BME280;10778;48.962;9.018;2023-10-31T12:43:59;98084.56;;;11.55;99.62
21240;BME280;10778;48.962;9.018;2023-10-31T12:46:29;98084.25;;;11.50;99.78
21240;BME280;10778;48.962;9.018;2023-10-31T12:48:58;98081.13;;;11.55;100.00
21240;BME280;10778;48.962;9.018;2023-10-31T12:51:25;98084.59;;;11.47;100.00
21240;BME280;10778;48.962;9.018;2023-10-31T12:53:51;98078.00;;;11.51;100.00
21240;BME280;10778;48.962;9.018;2023-10-31T12:56:39;98087.41;;;11.45;100.00
21240;BME280;10778;48.962;9.018;2023-10-31T12:59:06;98080.28;;;11.54;99.67
21240;BME280;10778;48.962;9.018;2023-10-31T13:01:36;98079.28;;;11.55;100.00